createdAt,value
2018-04-19T00:00:05.782Z,5.77
2018-04-19T00:02:34.405Z,6.23
2018-04-19T00:05:02.934Z,5.77
2018-04-19T00:07:31.450Z,5.50
2018-04-19T00:10:00.783Z,5.37
2018-04-19T00:12:30.105Z,5.57
2018-04-19T00:14:58.814Z,5.30
2018-04-19T00:17:27.357Z,6.23
2018-04-19T00:19:55.850Z,5.10
2018-04-19T00:22:24.365Z,5.93
2018-04-19T00:24:52.788Z,5.60
2018-04-19T00:27:21.257Z,5.00
2018-04-19T00:29:50.522Z,5.10
2018-04-19T00:32:19.132Z,5.10
2018-04-19T00:34:47.726Z,5.30
2018-04-19T00:37:16.520Z,6.07
2018-04-19T00:39:46.200Z,5.13
2018-04-19T00:42:15.201Z,5.40
2018-04-19T00:44:43.672Z,5.70
2018-04-19T00:47:12.158Z,5.20
2018-04-19T00:49:41.197Z,5.13
2018-04-19T00:52:09.717Z,4.83
2018-04-19T00:54:38.233Z,5.60
2018-04-19T00:57:06.674Z,4.70
2018-04-19T00:59:35.883Z,5.97
2018-04-19T01:02:04.404Z,4.70
2018-04-19T01:04:32.937Z,5.30
2018-04-19T01:07:01.432Z,5.50
2018-04-19T01:09:29.921Z,5.60
2018-04-19T01:11:58.335Z,5.60
2018-04-19T01:14:27.064Z,5.07
2018-04-19T01:16:56.398Z,6.47
2018-04-19T01:19:24.827Z,5.43
2018-04-19T01:21:53.343Z,5.80
2018-04-19T01:24:21.833Z,5.70
2018-04-19T01:26:50.294Z,5.53
2018-04-19T01:29:19.776Z,5.70
2018-04-19T01:31:48.289Z,5.33
2018-04-19T01:34:16.822Z,6.10
2018-04-19T01:36:51.272Z,4.83
2018-04-19T01:39:19.797Z,5.63
2018-04-19T01:41:48.244Z,4.73
2018-04-19T01:44:16.812Z,5.70
2018-04-19T01:46:45.252Z,5.70
2018-04-19T01:49:13.749Z,5.50
2018-04-19T01:51:42.446Z,5.67
2018-04-19T01:54:11.020Z,5.83
2018-04-19T01:56:39.522Z,5.67
2018-04-19T01:59:08.266Z,5.23
2018-04-19T02:01:36.721Z,5.20
2018-04-19T02:04:04.869Z,5.27
2018-04-19T02:06:49.706Z,5.87
2018-04-19T02:09:17.998Z,5.53
2018-04-19T02:11:46.525Z,5.60
2018-04-19T02:14:14.784Z,5.17
2018-04-19T02:16:43.410Z,5.93
2018-04-19T02:19:11.970Z,6.73
2018-04-19T02:21:40.432Z,6.43
2018-04-19T02:24:08.903Z,5.13
2018-04-19T02:26:37.345Z,5.33
2018-04-19T02:29:05.842Z,5.50
2018-04-19T02:31:34.309Z,5.30
2018-04-19T02:34:02.845Z,7.23
2018-04-19T02:36:31.074Z,5.93
2018-04-19T02:38:59.643Z,4.80
2018-04-19T02:41:29.076Z,5.73
2018-04-19T02:43:57.696Z,5.13
2018-04-19T02:46:26.151Z,5.60
2018-04-19T02:48:54.701Z,6.30
2018-04-19T02:51:23.167Z,5.77
2018-04-19T02:53:51.645Z,6.00
2018-04-19T02:56:19.906Z,6.00
2018-04-19T02:58:48.485Z,6.30
2018-04-19T03:01:17.122Z,5.13
2018-04-19T03:03:45.723Z,6.70
2018-04-19T03:06:14.148Z,5.87
2018-04-19T03:08:42.410Z,5.77
2018-04-19T03:11:10.887Z,5.50
2018-04-19T03:13:39.356Z,6.67
2018-04-19T03:16:07.956Z,5.73
2018-04-19T03:18:36.458Z,6.10
2018-04-19T03:21:05.128Z,5.80
2018-04-19T03:23:33.670Z,6.53
2018-04-19T03:26:03.372Z,6.50
2018-04-19T03:28:32.718Z,6.10
2018-04-19T03:31:01.212Z,5.47
2018-04-19T03:33:29.922Z,5.97
2018-04-19T03:35:58.425Z,5.83
2018-04-19T03:38:26.971Z,7.10
2018-04-19T03:40:56.302Z,5.77
2018-04-19T03:43:24.896Z,6.23
2018-04-19T03:45:53.595Z,6.83
2018-04-19T03:48:22.518Z,6.27
2018-04-19T03:50:51.212Z,5.70
2018-04-19T03:53:19.673Z,6.40
2018-04-19T03:55:48.262Z,6.57
2018-04-19T03:58:16.926Z,6.57
2018-04-19T04:00:45.369Z,6.80
2018-04-19T04:03:13.905Z,5.40
2018-04-19T04:05:43.362Z,5.77
2018-04-19T04:08:12.041Z,5.40
2018-04-19T04:10:40.726Z,6.67
2018-04-19T04:13:10.436Z,6.60
2018-04-19T04:15:39.228Z,5.80
2018-04-19T04:18:18.936Z,5.40
2018-04-19T04:20:58.522Z,6.57
2018-04-19T04:23:45.463Z,5.33
2018-04-19T04:26:14.857Z,6.07
2018-04-19T04:28:44.417Z,5.67
2018-04-19T04:31:12.801Z,6.30
2018-04-19T04:33:41.446Z,6.30
2018-04-19T04:36:09.935Z,5.40
2018-04-19T04:38:38.469Z,5.87
2018-04-19T04:41:07.681Z,6.37
2018-04-19T04:43:37.161Z,5.97
2018-04-19T04:46:05.584Z,5.57
2018-04-19T04:48:34.857Z,5.90
2018-04-19T04:51:03.116Z,6.00
2018-04-19T04:53:31.385Z,5.60
2018-04-19T04:56:00.850Z,6.30
2018-04-19T04:58:29.338Z,5.20
2018-04-19T05:00:58.227Z,5.67
2018-04-19T05:03:28.774Z,6.20
2018-04-19T05:05:57.806Z,5.20
2018-04-19T05:08:25.985Z,5.40
2018-04-19T05:10:54.487Z,5.60
2018-04-19T05:13:22.941Z,5.23
2018-04-19T05:15:51.387Z,4.83
2018-04-19T05:18:24.013Z,5.03
2018-04-19T05:20:52.467Z,5.17
2018-04-19T05:23:20.982Z,5.47
2018-04-19T05:28:48.572Z,5.17
2018-04-19T05:31:17.074Z,5.40
2018-04-19T05:33:45.663Z,5.20
2018-04-19T05:36:14.267Z,4.77
2018-04-19T05:38:42.770Z,4.80
2018-04-19T05:41:11.264Z,5.87
2018-04-19T05:43:39.919Z,5.53
2018-04-19T05:46:08.460Z,5.33
2018-04-19T05:48:38.011Z,5.40
2018-04-19T05:51:06.712Z,4.90
2018-04-19T05:53:35.392Z,5.10
2018-04-19T05:56:04.072Z,4.77
2018-04-19T05:58:34.321Z,4.40
2018-04-19T06:01:04.085Z,4.70
2018-04-19T06:03:32.687Z,6.10
2018-04-19T06:06:01.743Z,5.40
2018-04-19T06:08:31.048Z,5.27
2018-04-19T06:11:10.624Z,4.50
2018-04-19T06:13:39.109Z,5.40
2018-04-19T06:16:08.138Z,4.90
2018-04-19T06:18:36.642Z,5.90
2018-04-19T06:21:05.174Z,4.90
2018-04-19T06:23:33.624Z,4.23
2018-04-19T06:26:01.890Z,5.27
2018-04-19T06:28:31.133Z,5.20
2018-04-19T06:30:59.677Z,5.67
2018-04-19T06:33:28.167Z,5.37
2018-04-19T06:35:56.700Z,6.00
2018-04-19T06:38:26.242Z,5.40
2018-04-19T06:40:54.798Z,6.70
2018-04-19T06:43:23.391Z,4.73
2018-04-19T06:45:52.677Z,4.87
2018-04-19T06:48:21.233Z,5.40
2018-04-19T06:50:49.723Z,5.67
2018-04-19T06:53:18.284Z,5.40
2018-04-19T06:55:46.771Z,5.40
2018-04-19T06:58:31.035Z,5.23
2018-04-19T07:00:59.747Z,5.00
2018-04-19T07:03:28.802Z,5.50
2018-04-19T07:05:57.334Z,5.37
2018-04-19T07:08:25.775Z,5.00
2018-04-19T07:10:54.644Z,5.60
2018-04-19T07:13:29.463Z,4.67
2018-04-19T07:15:58.068Z,4.93
2018-04-19T07:18:26.550Z,5.07
2018-04-19T07:20:55.259Z,5.03
2018-04-19T07:23:23.857Z,4.30
2018-04-19T07:25:52.340Z,4.80
2018-04-19T07:28:21.089Z,5.60
2018-04-19T07:30:49.391Z,4.70
2018-04-19T07:33:18.502Z,5.73
2018-04-19T07:35:47.141Z,5.27
2018-04-19T07:38:15.636Z,5.27
2018-04-19T07:40:50.178Z,5.30
2018-04-19T07:43:19.446Z,5.03
2018-04-19T07:45:48.093Z,5.33
2018-04-19T07:48:16.935Z,4.90
2018-04-19T07:50:45.841Z,5.27
2018-04-19T07:53:16.290Z,5.10
2018-04-19T07:55:53.598Z,5.70
2018-04-19T07:58:22.284Z,5.30
2018-04-19T08:00:51.064Z,4.23
2018-04-19T08:03:21.569Z,4.47
2018-04-19T08:05:50.098Z,5.10
2018-04-19T08:08:18.665Z,4.30
2018-04-19T08:10:47.304Z,4.40
2018-04-19T08:13:15.863Z,4.17
2018-04-19T08:15:44.400Z,5.03
2018-04-19T08:18:21.711Z,4.47
2018-04-19T08:20:50.211Z,4.40
2018-04-19T08:23:18.656Z,4.13
2018-04-19T08:25:47.158Z,4.60
2018-04-19T08:28:16.401Z,4.70
2018-04-19T08:30:50.805Z,3.90
2018-04-19T08:33:19.302Z,3.90
2018-04-19T08:35:48.600Z,5.07
2018-04-19T08:38:17.125Z,4.73
2018-04-19T08:40:45.641Z,4.03
2018-04-19T08:43:19.424Z,3.87
2018-04-19T08:45:47.911Z,4.40
2018-04-19T08:48:23.058Z,3.83
2018-04-19T08:50:52.306Z,3.93
2018-04-19T08:53:20.838Z,4.33
2018-04-19T08:55:49.387Z,4.50
2018-04-19T08:58:17.894Z,3.30
2018-04-19T09:00:46.462Z,4.70
2018-04-19T09:03:15.707Z,5.63
2018-04-19T09:05:44.219Z,4.67
2018-04-19T09:08:12.741Z,3.90
2018-04-19T09:10:43.797Z,4.73
2018-04-19T09:13:13.357Z,4.63
2018-04-19T09:15:45.677Z,4.13
2018-04-19T09:18:20.720Z,4.43
2018-04-19T09:20:51.030Z,4.40
2018-04-19T09:23:19.542Z,4.27
2018-04-19T09:25:48.386Z,4.77
2018-04-19T09:28:17.664Z,5.03
2018-04-19T09:30:46.185Z,3.60
2018-04-19T09:33:14.702Z,4.90
2018-04-19T09:35:43.152Z,4.90
2018-04-19T09:38:11.662Z,4.40
2018-04-19T09:40:40.248Z,4.20
2018-04-19T09:43:08.802Z,3.83
2018-04-19T09:45:37.359Z,3.67
2018-04-19T09:48:05.877Z,4.47
2018-04-19T09:50:35.155Z,4.87
2018-04-19T09:53:03.675Z,4.27
2018-04-19T09:55:33.337Z,4.57
2018-04-19T09:58:08.898Z,4.30
2018-04-19T10:00:42.890Z,4.20
2018-04-19T10:03:17.357Z,4.10
2018-04-19T10:05:59.206Z,5.90
2018-04-19T10:08:27.716Z,4.57
2018-04-19T10:10:56.995Z,4.63
2018-04-19T10:13:25.519Z,4.90
2018-04-19T10:15:54.066Z,4.97
2018-04-19T10:18:22.708Z,4.67
2018-04-19T10:20:51.205Z,4.80
2018-04-19T10:23:19.883Z,4.77
2018-04-19T10:28:40.935Z,4.07
2018-04-19T10:31:09.207Z,4.77
2018-04-19T10:33:41.649Z,4.30
2018-04-19T10:36:10.409Z,4.37
2018-04-19T10:38:43.539Z,4.40
2018-04-19T10:41:12.844Z,4.40
2018-04-19T10:43:41.622Z,5.70
2018-04-19T10:46:10.599Z,3.77
2018-04-19T10:48:39.137Z,4.00
2018-04-19T10:51:07.652Z,3.10
2018-04-19T10:53:36.142Z,3.30
2018-04-19T10:56:04.153Z,2.87
2018-04-19T10:58:35.245Z,3.87
2018-04-19T11:01:04.118Z,3.00
2018-04-19T11:03:33.408Z,3.13
2018-04-19T11:06:01.658Z,2.90
2018-04-19T11:08:30.816Z,2.93
2018-04-19T11:10:59.297Z,2.77
2018-04-19T11:13:28.598Z,2.90
2018-04-19T11:15:57.133Z,2.47
2018-04-19T11:18:25.688Z,2.50
2018-04-19T11:20:58.093Z,2.53
2018-04-19T11:23:26.576Z,2.57
2018-04-19T11:25:57.243Z,3.70
2018-04-19T11:28:25.915Z,2.87
2018-04-19T11:30:54.311Z,3.10
2018-04-19T11:33:23.046Z,2.67
2018-04-19T11:35:56.144Z,2.90
2018-04-19T11:38:26.756Z,2.93
2018-04-19T11:41:00.173Z,1.97
2018-04-19T11:46:26.787Z,3.37
2018-04-19T11:48:56.284Z,2.73
2018-04-19T11:51:24.820Z,2.60
2018-04-19T11:53:53.356Z,3.00
2018-04-19T11:56:21.835Z,3.57
2018-04-19T11:58:50.343Z,3.00
2018-04-19T12:01:18.773Z,2.90
2018-04-19T12:03:47.263Z,3.37
2018-04-19T12:06:16.510Z,2.97
2018-04-19T12:08:45.027Z,2.47
2018-04-19T12:11:14.619Z,4.67
2018-04-19T12:13:43.197Z,2.87
2018-04-19T12:16:21.399Z,3.87
2018-04-19T12:18:57.826Z,3.90
2018-04-19T12:21:34.066Z,3.57
2018-04-19T12:24:02.610Z,3.10
2018-04-19T12:26:30.898Z,3.70
2018-04-19T12:28:59.391Z,3.00
2018-04-19T12:31:27.995Z,3.60
2018-04-19T12:33:56.634Z,3.40
2018-04-19T12:36:25.312Z,4.30
2018-04-19T12:38:57.194Z,3.97
2018-04-19T12:41:25.704Z,3.67
2018-04-19T12:43:54.219Z,4.47
2018-04-19T12:46:22.772Z,3.90
2018-04-19T12:49:05.165Z,4.27
2018-04-19T12:51:33.734Z,4.07
2018-04-19T12:54:01.897Z,4.27
2018-04-19T12:56:30.416Z,3.20
2018-04-19T12:58:59.108Z,2.97
2018-04-19T13:01:27.636Z,3.33
2018-04-19T13:03:56.131Z,3.53
2018-04-19T13:06:24.633Z,3.53
2018-04-19T13:08:53.093Z,3.30
2018-04-19T13:11:21.575Z,3.70
2018-04-19T13:13:50.075Z,3.70
2018-04-19T13:16:18.836Z,3.10
2018-04-19T13:18:53.432Z,3.67
2018-04-19T13:21:22.078Z,3.37
2018-04-19T13:26:54.398Z,2.97
2018-04-19T13:29:22.950Z,3.83
2018-04-19T13:31:52.130Z,3.03
2018-04-19T13:34:20.812Z,3.23
2018-04-19T13:36:49.559Z,2.70
2018-04-19T13:39:18.114Z,3.50
2018-04-19T13:41:47.384Z,3.70
2018-04-19T13:44:16.790Z,4.00
2018-04-19T13:46:45.368Z,2.93
2018-04-19T13:49:13.870Z,2.83
2018-04-19T13:51:42.428Z,3.00
2018-04-19T13:54:10.906Z,3.13
2018-04-19T13:56:39.958Z,3.40
2018-04-19T13:59:08.647Z,3.20
2018-04-19T14:01:37.127Z,3.90
2018-04-19T14:04:05.648Z,3.17
2018-04-19T14:06:56.847Z,3.20
2018-04-19T14:12:19.419Z,3.10
2018-04-19T14:14:48.748Z,3.30
2018-04-19T14:17:18.016Z,3.20
2018-04-19T14:19:52.459Z,3.27
2018-04-19T14:22:21.051Z,3.70
2018-04-19T14:24:49.625Z,3.30
2018-04-19T14:27:18.147Z,3.33
2018-04-19T14:29:52.244Z,3.50
2018-04-19T14:32:22.488Z,4.87
2018-04-19T14:34:51.012Z,3.93
2018-04-19T14:37:19.569Z,3.53
2018-04-19T14:39:48.074Z,3.60
2018-04-19T14:42:23.349Z,3.40
2018-04-19T14:44:51.827Z,3.53
2018-04-19T14:50:23.277Z,2.93
2018-04-19T14:52:51.767Z,3.27
2018-04-19T14:55:20.356Z,3.50
2018-04-19T14:57:52.502Z,3.30
2018-04-19T15:00:22.515Z,3.50
2018-04-19T15:02:51.024Z,3.47
2018-04-19T15:05:22.282Z,3.60
2018-04-19T15:07:50.930Z,3.70
2018-04-19T15:10:20.216Z,3.67
2018-04-19T15:12:48.727Z,3.10
2018-04-19T15:15:33.589Z,2.97
2018-04-19T15:18:14.232Z,3.43
2018-04-19T15:20:42.716Z,2.47
2018-04-19T15:23:11.242Z,3.10
2018-04-19T15:25:40.813Z,3.23
2018-04-19T15:30:50.297Z,3.30
2018-04-19T15:33:18.854Z,3.10
2018-04-19T15:35:48.142Z,2.17
2018-04-19T15:38:16.664Z,3.67
2018-04-19T15:40:45.357Z,3.80
2018-04-19T15:43:13.645Z,3.20
2018-04-19T15:45:43.228Z,3.40
2018-04-19T15:48:11.693Z,3.30
2018-04-19T15:50:40.226Z,3.57
2018-04-19T15:53:08.731Z,3.47
2018-04-19T15:55:37.371Z,3.77
2018-04-19T15:58:05.597Z,3.37
2018-04-19T16:00:34.088Z,3.90
2018-04-19T16:05:42.163Z,3.80
2018-04-19T16:08:10.756Z,3.30
2018-04-19T16:10:39.237Z,3.70
2018-04-19T16:13:08.811Z,4.00
2018-04-19T16:15:37.296Z,4.03
2018-04-19T16:18:06.583Z,3.33
2018-04-19T16:20:35.042Z,2.90
2018-04-19T16:23:03.759Z,3.73
2018-04-19T16:25:32.290Z,3.30
2018-04-19T16:28:00.842Z,4.00
2018-04-19T16:30:29.362Z,3.33
2018-04-19T16:33:13.030Z,3.43
2018-04-19T16:35:41.543Z,3.90
2018-04-19T16:38:10.209Z,3.70
2018-04-19T16:40:38.760Z,4.50
2018-04-19T16:43:07.258Z,3.50
2018-04-19T16:45:35.778Z,3.33
2018-04-19T16:48:04.282Z,3.30
2018-04-19T16:50:32.834Z,3.50
2018-04-19T16:53:01.565Z,3.20
2018-04-19T16:55:30.074Z,3.40
2018-04-19T16:58:09.443Z,3.50
2018-04-19T17:00:38.726Z,3.57
2018-04-19T17:03:07.253Z,3.63
2018-04-19T17:05:35.806Z,3.60
2018-04-19T17:08:04.307Z,3.80
2018-04-19T17:10:32.851Z,3.97
2018-04-19T17:13:01.344Z,3.50
2018-04-19T17:15:29.880Z,3.80
2018-04-19T17:17:58.379Z,3.70
2018-04-19T17:20:26.952Z,4.03
2018-04-19T17:22:55.459Z,3.27
2018-04-19T17:25:24.015Z,4.50
2018-04-19T17:27:52.531Z,4.00
2018-04-19T17:30:21.128Z,3.80
2018-04-19T17:32:49.867Z,3.40
2018-04-19T17:35:18.420Z,4.00
2018-04-19T17:37:47.726Z,4.67
2018-04-19T17:40:16.239Z,3.57
2018-04-19T17:42:44.789Z,3.60
2018-04-19T17:45:14.252Z,4.20
2018-04-19T17:47:55.473Z,2.77
2018-04-19T17:50:24.091Z,4.20
2018-04-19T17:52:52.358Z,3.60
2018-04-19T17:55:20.891Z,3.40
2018-04-19T17:57:49.386Z,4.10
2018-04-19T18:00:17.937Z,3.87
2018-04-19T18:02:50.395Z,3.90
2018-04-19T18:05:19.072Z,3.30
2018-04-19T18:07:48.114Z,3.60
2018-04-19T18:10:17.127Z,3.90
2018-04-19T18:15:50.388Z,3.40
2018-04-19T18:27:22.060Z,4.03
2018-04-19T18:29:51.422Z,4.63
2018-04-19T18:32:21.155Z,5.20
2018-04-19T18:43:53.694Z,4.63
2018-04-19T18:46:22.249Z,4.00
2018-04-19T18:51:30.889Z,4.17
2018-04-19T18:53:59.418Z,4.80
2018-04-19T18:56:33.655Z,4.10
2018-04-19T18:59:02.370Z,4.20
2018-04-19T19:01:33.883Z,3.57
2018-04-19T19:04:02.537Z,4.67
2018-04-19T19:06:30.807Z,3.30
2018-04-19T19:08:59.362Z,4.57
2018-04-19T19:11:30.797Z,4.50
2018-04-19T19:13:59.593Z,3.90
2018-04-19T19:16:28.164Z,4.37
2018-04-19T19:19:07.817Z,3.43
2018-04-19T19:21:37.235Z,4.10
2018-04-19T19:27:18.806Z,3.50
2018-04-19T19:29:47.331Z,4.40
2018-04-19T19:32:15.901Z,3.80
2018-04-19T19:34:44.522Z,4.10
2018-04-19T19:37:24.979Z,4.13
2018-04-19T19:39:53.515Z,7.00
2018-04-19T19:42:22.986Z,5.83
2018-04-19T19:44:51.475Z,13.37
2018-04-19T19:47:19.754Z,11.10
2018-04-19T19:49:48.295Z,9.13
2018-04-19T19:52:17.017Z,7.20
2018-04-19T19:54:45.875Z,5.60
2018-04-19T20:00:04.402Z,6.23
2018-04-19T20:02:33.009Z,7.10
2018-04-19T20:05:06.452Z,10.43
2018-04-19T20:07:35.067Z,11.20
2018-04-19T20:10:05.162Z,6.20
2018-04-19T20:12:33.793Z,5.50
2018-04-19T20:15:02.354Z,9.20
2018-04-19T20:17:30.832Z,10.20
2018-04-19T20:19:59.333Z,18.40
2018-04-19T20:22:28.609Z,10.33
2018-04-19T20:24:58.220Z,14.27
2018-04-19T20:27:26.751Z,8.20
2018-04-19T20:29:55.291Z,8.27
2018-04-19T20:32:24.624Z,6.63
2018-04-19T20:34:53.223Z,18.00
2018-04-19T20:37:21.772Z,19.20
2018-04-19T20:39:50.135Z,16.47
2018-04-19T20:42:20.643Z,18.07
2018-04-19T20:44:50.206Z,24.53
2018-04-19T20:47:19.658Z,16.77
2018-04-19T20:49:50.224Z,12.30
2018-04-19T20:52:22.889Z,9.50
2018-04-19T20:54:51.507Z,9.30
2018-04-19T20:57:20.228Z,8.63
2018-04-19T20:59:50.976Z,7.60
2018-04-19T21:02:20.939Z,7.27
2018-04-19T21:04:51.495Z,6.00
2018-04-19T21:07:23.281Z,6.60
2018-04-19T21:09:51.653Z,4.90
2018-04-19T21:12:21.274Z,6.13
2018-04-19T21:14:49.794Z,6.90
2018-04-19T21:19:56.402Z,6.60
2018-04-19T21:22:24.939Z,6.20
2018-04-19T21:24:55.131Z,6.30
2018-04-19T21:27:23.635Z,6.63
2018-04-19T21:29:52.405Z,7.23
2018-04-19T21:32:21.095Z,6.47
2018-04-19T21:35:20.253Z,6.40
2018-04-19T21:37:48.791Z,7.93
2018-04-19T21:40:18.472Z,6.23
2018-04-19T21:42:46.944Z,6.47
2018-04-19T21:45:18.124Z,6.97
2018-04-19T21:47:46.598Z,5.53
2018-04-19T21:53:26.494Z,6.77
2018-04-19T21:55:56.254Z,6.20
2018-04-19T21:58:24.736Z,6.30
2018-04-19T22:03:45.948Z,7.57
2018-04-19T22:06:15.234Z,6.37
2018-04-19T22:08:44.330Z,7.50
2018-04-19T22:11:12.976Z,6.27
2018-04-19T22:13:41.467Z,5.57
2018-04-19T22:16:20.110Z,7.00
2018-04-19T22:18:49.443Z,7.10
2018-04-19T22:21:17.957Z,5.80
2018-04-19T22:23:46.123Z,6.90
2018-04-19T22:26:14.670Z,7.23
2018-04-19T22:28:49.663Z,7.47
2018-04-19T22:31:18.501Z,5.40
2018-04-19T22:33:47.015Z,7.20
2018-04-19T22:36:15.489Z,6.60
2018-04-19T22:38:44.005Z,6.13
2018-04-19T22:41:12.504Z,6.63
2018-04-19T22:43:40.998Z,6.30
2018-04-19T22:46:09.507Z,6.80
2018-04-19T22:48:38.036Z,7.20
2018-04-19T22:51:06.348Z,7.27
2018-04-19T22:53:34.916Z,6.50
2018-04-19T22:56:03.559Z,6.33
2018-04-19T22:58:50.280Z,6.33
2018-04-19T23:01:20.616Z,6.50
2018-04-19T23:03:49.152Z,7.20
2018-04-19T23:06:17.677Z,7.67
2018-04-19T23:08:57.711Z,7.77
2018-04-19T23:11:49.712Z,8.10
2018-04-19T23:14:18.241Z,7.60
2018-04-19T23:16:46.873Z,7.00
2018-04-19T23:22:09.162Z,6.57
2018-04-19T23:24:37.607Z,7.07
2018-04-19T23:27:06.085Z,6.50
2018-04-19T23:29:53.124Z,6.10
2018-04-19T23:32:21.436Z,6.20
2018-04-19T23:34:50.729Z,7.03
2018-04-19T23:37:19.175Z,6.60
2018-04-19T23:46:59.301Z,7.27
2018-04-19T23:49:27.800Z,6.40
2018-04-19T23:51:56.336Z,7.27
2018-04-19T23:54:24.803Z,7.77
2018-04-19T23:56:53.347Z,6.60
2018-04-19T23:59:21.836Z,7.43
